Condicions actuals
Mostly Scattered
Clouds



Pressió
1013.92 (hPa) - 29.94 (inHG)
Visibilitat

10.0 (km) - 6.2 (miles)
   Temperatura
21  °C
70°F
18  °C
P. rosada
83  %
 Humitat
   Velocitat
16  km/h
9  kts
10  mph
4.5  m/s
   Direcció
 110°
ESE
   Aeroport Metar Data
LEBL
Ubicació : Barcelona International Airport
Distància:  
15 km (9.32 mi)
Metar :LEBL 202030Z 11009KT 9999 SCT018 BKN026 21/18 Q1014 NOSIG
Tue 20th October 22:30 pm
   Raw Metar Info
Raw METAR is the most common format in the world for the transmission of observational weather data. It is highly standardized through the International Civil Aviation Organization (ICAO), which allows it to be understood throughout most of the world.
   API Info
Data Provided by
https://www.checkwx.com/weather/LEBL
   © Info
CSS/SVG/PHP scripts were developed by weather34.com for use in the weather34 template © 2015-2020

Guide Info provided by Metar-Wikipedia